Springfield, New Jersey
Current Conditions -  °F | °C
As of 4:55 AM on Saturday 29 Nov 2014 (Local Time) from KLDJ Reporting Station
Clear Clear  
Wind Chill: 27°   Ceiling: Unl
Heat Index: 27°   Visibility: 10mi
Dew Point: 20°   Wind: 3mph
Humidity: 75%   Direction: 300°WNW
Pressure: 30.34"   Gusts: NA
Location:  40.71°N, 74.31°W
Report Text: KLDJ 290955Z AUTO 30003KT 10SM CLR M03/M06 A3034 RMK AO2 T10261065
Loading
Personal Weather Stations






























Interactive Weather Map New forecast layout! Learn more

10-Day Weather Forecast

Advertisements
Track Severe Weather on mobile